createdAt,value
2022-12-28T00:00:17.902Z,79.70
2022-12-28T00:02:46.974Z,80.00
2022-12-28T00:05:16.138Z,80.00
2022-12-28T00:07:45.783Z,80.20
2022-12-28T00:34:36.364Z,80.80
2022-12-28T00:45:15.156Z,81.00
2022-12-28T00:47:44.688Z,80.70
2022-12-28T00:50:14.613Z,80.30
2022-12-28T00:52:43.661Z,80.40
2022-12-28T00:55:12.803Z,80.40
2022-12-28T00:57:42.248Z,80.50
2022-12-28T01:00:12.547Z,80.50
2022-12-28T01:02:44.361Z,80.50
2022-12-28T01:05:13.295Z,81.60
2022-12-28T01:07:42.270Z,80.60
2022-12-28T01:10:11.493Z,81.00
2022-12-28T01:12:40.490Z,80.60
2022-12-28T01:15:11.686Z,81.00
2022-12-28T01:17:41.148Z,80.50
2022-12-28T01:20:11.207Z,79.80
2022-12-28T01:22:40.264Z,79.90
2022-12-28T01:25:09.592Z,80.00
2022-12-28T01:27:38.637Z,80.20
2022-12-28T01:30:08.803Z,79.70
2022-12-28T01:32:37.763Z,79.20
2022-12-28T01:35:07.212Z,78.80
2022-12-28T01:37:36.852Z,79.00
2022-12-28T01:40:06.384Z,78.70
2022-12-28T01:42:35.356Z,78.00
2022-12-28T01:45:23.359Z,77.60
2022-12-28T01:47:55.359Z,77.70
2022-12-28T01:50:29.495Z,77.30
2022-12-28T01:53:01.089Z,77.10
2022-12-28T01:55:33.952Z,77.80
2022-12-28T01:58:30.883Z,76.70
2022-12-28T02:01:00.107Z,76.30
2022-12-28T02:03:32.953Z,75.70
2022-12-28T02:06:06.151Z,75.50
2022-12-28T02:08:56.871Z,75.10
2022-12-28T02:11:25.927Z,74.90
2022-12-28T02:13:56.705Z,74.70
2022-12-28T02:16:25.754Z,74.40
2022-12-28T02:18:55.345Z,74.20
2022-12-28T02:21:35.325Z,74.00
2022-12-28T02:24:28.783Z,73.70
2022-12-28T02:27:30.826Z,73.00
2022-12-28T02:29:59.790Z,72.50
2022-12-28T02:32:40.869Z,72.60
2022-12-28T02:35:31.805Z,72.20
2022-12-28T02:38:12.116Z,72.00
2022-12-28T02:40:48.931Z,70.60
2022-12-28T02:43:18.293Z,70.40
2022-12-28T02:46:07.224Z,69.60
2022-12-28T02:49:05.803Z,68.80
2022-12-28T02:52:03.302Z,68.00
2022-12-28T02:55:02.963Z,66.40
2022-12-28T02:57:47.211Z,67.30
2022-12-28T03:00:20.094Z,65.00
2022-12-28T03:03:22.111Z,61.50
2022-12-28T03:06:35.298Z,65.90
2022-12-28T03:09:41.032Z,64.50
2022-12-28T03:12:27.675Z,63.90
2022-12-28T03:15:09.000Z,65.40
2022-12-28T03:18:00.056Z,66.60
2022-12-28T03:20:50.713Z,64.30
2022-12-28T03:23:41.375Z,66.90
2022-12-28T03:26:32.494Z,66.90
2022-12-28T03:29:22.515Z,67.00
2022-12-28T03:31:51.775Z,66.50
2022-12-28T03:34:20.845Z,65.00
2022-12-28T03:37:26.414Z,65.40
2022-12-28T03:40:07.629Z,61.90
2022-12-28T03:43:02.906Z,64.50
2022-12-28T03:46:16.304Z,65.80
2022-12-28T03:48:47.139Z,64.90
2022-12-28T03:51:18.521Z,65.70
2022-12-28T03:53:49.304Z,65.40
2022-12-28T03:56:24.168Z,65.40
2022-12-28T03:58:54.123Z,65.10
2022-12-28T04:01:23.330Z,65.30
2022-12-28T04:03:52.441Z,65.00
2022-12-28T04:06:21.910Z,64.50
2022-12-28T04:08:50.909Z,64.70
2022-12-28T04:11:19.848Z,63.60
2022-12-28T04:13:48.870Z,64.20
2022-12-28T04:16:18.355Z,64.60
2022-12-28T04:18:48.381Z,63.70
2022-12-28T04:21:17.944Z,64.10
2022-12-28T04:23:46.963Z,63.90
2022-12-28T04:26:17.832Z,64.40
2022-12-28T04:28:47.145Z,64.80
2022-12-28T04:31:16.542Z,64.00
2022-12-28T04:33:45.533Z,63.70
2022-12-28T04:36:17.586Z,63.70
2022-12-28T04:38:49.091Z,63.50
2022-12-28T04:41:18.245Z,63.70
2022-12-28T04:43:47.247Z,63.30
2022-12-28T04:46:17.210Z,63.20
2022-12-28T04:48:46.290Z,63.00
2022-12-28T04:51:25.683Z,63.60
2022-12-28T04:53:56.281Z,64.00
2022-12-28T04:56:27.276Z,63.90
2022-12-28T04:58:58.432Z,63.60
2022-12-28T05:01:28.043Z,63.80
2022-12-28T05:03:59.461Z,63.10
2022-12-28T05:06:29.441Z,63.70
2022-12-28T05:08:59.479Z,63.50
2022-12-28T05:11:30.771Z,63.30
2022-12-28T05:14:00.104Z,62.50
2022-12-28T05:16:30.520Z,62.30
2022-12-28T05:18:59.963Z,62.30
2022-12-28T05:21:30.228Z,62.30
2022-12-28T05:24:00.241Z,61.20
2022-12-28T05:26:31.410Z,59.80
2022-12-28T05:29:00.410Z,60.40
2022-12-28T05:31:30.017Z,60.90
2022-12-28T05:33:59.048Z,60.30
2022-12-28T05:36:29.702Z,60.90
2022-12-28T05:38:58.815Z,61.00
2022-12-28T05:41:30.278Z,60.00
2022-12-28T05:44:01.007Z,58.80
2022-12-28T05:46:32.426Z,59.90
2022-12-28T05:49:02.261Z,59.70
2022-12-28T05:51:33.779Z,59.70
2022-12-28T05:54:07.465Z,57.90
2022-12-28T05:56:36.967Z,57.90
2022-12-28T05:59:08.793Z,57.80
2022-12-28T06:01:45.028Z,59.30
2022-12-28T06:04:20.404Z,59.20
2022-12-28T06:06:50.386Z,58.60
2022-12-28T06:09:19.535Z,59.20
2022-12-28T06:11:48.648Z,58.00
2022-12-28T06:14:17.643Z,58.50
2022-12-28T06:16:46.983Z,58.80
2022-12-28T06:19:16.609Z,58.80
2022-12-28T06:21:45.774Z,58.30
2022-12-28T06:24:15.261Z,57.70
2022-12-28T06:26:44.304Z,57.90
2022-12-28T06:29:13.855Z,58.00
2022-12-28T06:31:48.248Z,57.70
2022-12-28T06:34:17.264Z,57.00
2022-12-28T06:36:47.929Z,57.10
2022-12-28T06:39:17.143Z,56.80
2022-12-28T06:41:46.177Z,57.20
2022-12-28T06:44:16.472Z,56.60
2022-12-28T06:46:45.582Z,56.90
2022-12-28T06:49:14.597Z,56.20
2022-12-28T06:51:43.581Z,56.40
2022-12-28T06:54:13.118Z,55.60
2022-12-28T06:56:42.219Z,55.70
2022-12-28T06:59:11.224Z,54.00
2022-12-28T07:01:44.888Z,55.40
2022-12-28T07:04:17.450Z,55.80
2022-12-28T07:06:46.774Z,51.80
2022-12-28T07:09:17.726Z,53.70
2022-12-28T07:11:47.458Z,55.10
2022-12-28T07:14:16.487Z,55.10
2022-12-28T07:16:45.488Z,54.80
2022-12-28T07:19:14.449Z,54.80
2022-12-28T07:21:43.515Z,54.00
2022-12-28T07:24:12.700Z,55.00
2022-12-28T07:26:42.235Z,54.90
2022-12-28T07:29:11.602Z,53.10
2022-12-28T07:31:45.779Z,54.70
2022-12-28T07:34:17.104Z,54.80
2022-12-28T07:36:46.366Z,54.90
2022-12-28T07:39:15.410Z,55.00
2022-12-28T07:41:44.567Z,52.10
2022-12-28T07:44:15.450Z,52.70
2022-12-28T07:46:44.428Z,53.90
2022-12-28T07:49:16.272Z,53.60
2022-12-28T07:51:45.228Z,53.00
2022-12-28T07:54:14.245Z,52.00
2022-12-28T07:59:11.249Z,53.00
2022-12-28T08:01:40.598Z,52.80
2022-12-28T08:04:14.632Z,51.90
2022-12-28T08:06:44.967Z,50.80
2022-12-28T08:09:17.183Z,52.20
2022-12-28T08:11:47.477Z,51.00
2022-12-28T08:14:16.555Z,53.30
2022-12-28T08:16:46.419Z,53.50
2022-12-28T08:19:15.456Z,52.30
2022-12-28T08:21:47.318Z,51.90
2022-12-28T08:24:19.183Z,52.80
2022-12-28T08:26:49.430Z,52.20
2022-12-28T08:29:21.418Z,52.90
2022-12-28T08:31:51.208Z,52.30
2022-12-28T08:34:28.020Z,48.50
2022-12-28T08:36:57.969Z,53.00
2022-12-28T08:39:26.904Z,51.30
2022-12-28T08:41:57.562Z,52.50
2022-12-28T08:44:26.558Z,51.20
2022-12-28T08:46:57.012Z,53.40
2022-12-28T08:49:26.062Z,47.70
2022-12-28T08:51:55.118Z,49.10
2022-12-28T08:54:24.157Z,52.30
2022-12-28T08:56:55.399Z,50.10
2022-12-28T08:59:24.401Z,52.50
2022-12-28T09:01:53.497Z,52.10
2022-12-28T09:04:23.870Z,53.30
2022-12-28T09:06:53.118Z,51.20
2022-12-28T09:09:23.046Z,53.40
2022-12-28T09:11:52.114Z,52.80
2022-12-28T09:14:24.096Z,50.20
2022-12-28T09:16:54.888Z,52.90
2022-12-28T09:19:26.018Z,52.80
2022-12-28T09:21:57.599Z,52.30
2022-12-28T09:24:26.556Z,52.30
2022-12-28T09:26:56.471Z,50.50
2022-12-28T09:29:25.714Z,52.70
2022-12-28T09:31:54.731Z,52.50
2022-12-28T09:34:35.684Z,52.60
2022-12-28T09:37:06.675Z,52.70
2022-12-28T09:39:35.920Z,51.20
2022-12-28T09:42:16.142Z,52.00
2022-12-28T09:45:07.316Z,52.00
2022-12-28T09:47:46.943Z,52.10
2022-12-28T09:50:22.919Z,53.50
2022-12-28T09:56:39.022Z,51.70
2022-12-28T09:59:09.900Z,53.00
2022-12-28T10:01:41.448Z,53.70
2022-12-28T10:04:13.826Z,53.80
2022-12-28T10:06:44.764Z,53.60
2022-12-28T10:09:30.291Z,54.80
2022-12-28T10:12:02.296Z,53.80
2022-12-28T10:14:35.728Z,54.80
2022-12-28T10:17:07.426Z,53.50
2022-12-28T10:19:36.508Z,56.00
2022-12-28T10:22:13.067Z,54.60
2022-12-28T10:24:43.438Z,54.80
2022-12-28T10:27:23.842Z,55.40
2022-12-28T10:29:54.452Z,55.40
2022-12-28T10:32:23.555Z,55.70
2022-12-28T10:34:56.676Z,55.90
2022-12-28T10:37:27.267Z,55.60
2022-12-28T10:40:00.428Z,56.30
2022-12-28T10:42:53.733Z,56.30
2022-12-28T10:45:26.687Z,56.70
2022-12-28T10:47:57.606Z,56.50
2022-12-28T10:50:41.784Z,56.50
2022-12-28T10:53:30.614Z,56.80
2022-12-28T10:56:11.846Z,57.40
2022-12-28T10:58:45.768Z,57.00
2022-12-28T11:01:14.392Z,56.90
2022-12-28T11:03:46.720Z,55.90
2022-12-28T11:06:27.203Z,56.50
2022-12-28T11:09:17.420Z,56.50
2022-12-28T11:11:48.150Z,56.50
2022-12-28T11:14:38.730Z,56.50
2022-12-28T11:17:16.504Z,56.10
2022-12-28T11:19:46.018Z,56.20
2022-12-28T11:22:18.594Z,56.20
2022-12-28T11:24:47.731Z,56.30
2022-12-28T11:27:19.771Z,56.40
2022-12-28T11:29:51.849Z,56.30
2022-12-28T11:32:28.254Z,56.90
2022-12-28T11:34:59.178Z,56.50
2022-12-28T11:37:28.258Z,56.70
2022-12-28T11:39:57.488Z,56.50
2022-12-28T11:42:39.907Z,56.70
2022-12-28T11:45:37.235Z,56.80
2022-12-28T11:48:41.562Z,56.60
2022-12-28T11:51:27.658Z,56.30
2022-12-28T11:53:58.559Z,57.20
2022-12-28T11:56:47.816Z,56.40
2022-12-28T11:59:29.350Z,56.00
2022-12-28T12:01:59.699Z,57.10
2022-12-28T12:04:35.995Z,56.50
2022-12-28T12:07:05.036Z,56.90
2022-12-28T12:09:39.285Z,57.90
2022-12-28T12:12:18.470Z,57.90
2022-12-28T12:15:13.116Z,58.20
2022-12-28T12:17:43.316Z,58.20
2022-12-28T12:20:32.075Z,59.80
2022-12-28T12:23:26.439Z,59.10
2022-12-28T12:25:58.906Z,59.10
2022-12-28T12:28:40.022Z,59.20
2022-12-28T12:31:13.615Z,59.20
2022-12-28T12:33:47.698Z,59.10
2022-12-28T12:36:29.258Z,59.20
2022-12-28T12:39:21.539Z,60.60
2022-12-28T12:42:14.820Z,59.50
2022-12-28T12:45:02.015Z,59.30
2022-12-28T12:47:46.259Z,59.40
2022-12-28T12:50:19.211Z,59.60
2022-12-28T12:53:48.045Z,60.10
2022-12-28T12:56:38.540Z,60.10
2022-12-28T12:59:48.243Z,59.60
2022-12-28T13:02:44.661Z,59.20
2022-12-28T13:05:25.537Z,59.20
2022-12-28T13:07:57.628Z,61.20
2022-12-28T13:10:53.338Z,59.80
2022-12-28T13:13:39.611Z,60.50
2022-12-28T13:16:14.037Z,61.30
2022-12-28T13:18:53.642Z,61.70
2022-12-28T13:21:24.347Z,61.20
2022-12-28T13:23:54.425Z,61.70
2022-12-28T13:26:31.195Z,62.30
2022-12-28T13:29:09.793Z,61.20
2022-12-28T13:31:43.343Z,61.00
2022-12-28T13:34:15.125Z,60.80
2022-12-28T13:36:51.469Z,60.50
2022-12-28T13:39:21.903Z,60.30
2022-12-28T13:42:39.802Z,60.40
2022-12-28T13:45:14.826Z,61.00
2022-12-28T13:47:48.868Z,60.80
2022-12-28T13:50:19.893Z,60.90
2022-12-28T13:53:06.356Z,62.00
2022-12-28T13:55:50.416Z,61.40
2022-12-28T13:58:37.176Z,61.40
2022-12-28T14:01:11.652Z,61.90
2022-12-28T14:03:46.103Z,61.50
2022-12-28T14:06:18.897Z,61.70
2022-12-28T14:08:49.271Z,61.70
2022-12-28T14:11:19.140Z,61.70
2022-12-28T14:13:48.483Z,62.00
2022-12-28T14:16:17.807Z,62.20
2022-12-28T14:18:47.181Z,62.30
2022-12-28T14:21:16.176Z,62.40
2022-12-28T14:23:45.535Z,62.50
2022-12-28T14:26:24.365Z,62.40
2022-12-28T14:28:58.576Z,62.30
2022-12-28T14:31:33.919Z,62.40
2022-12-28T14:34:06.005Z,62.50
2022-12-28T14:36:44.812Z,62.50
2022-12-28T14:39:37.848Z,62.50
2022-12-28T14:42:18.401Z,63.40
2022-12-28T14:44:52.476Z,62.70
2022-12-28T14:47:47.377Z,64.50
2022-12-28T14:50:29.007Z,65.80
2022-12-28T14:53:12.500Z,64.90
2022-12-28T14:55:55.146Z,64.40
2022-12-28T14:58:29.357Z,65.10
2022-12-28T15:01:01.858Z,64.50
2022-12-28T15:03:31.852Z,64.30
2022-12-28T15:06:03.693Z,64.60
2022-12-28T15:08:32.715Z,65.00
2022-12-28T15:13:52.114Z,65.40
2022-12-28T15:16:26.776Z,64.80
2022-12-28T15:18:56.031Z,64.70
2022-12-28T15:21:25.975Z,64.80
2022-12-28T15:23:56.639Z,65.10
2022-12-28T15:26:28.596Z,64.90
2022-12-28T15:28:57.612Z,64.70
2022-12-28T15:31:26.742Z,64.70
2022-12-28T15:33:55.801Z,64.40
2022-12-28T15:36:26.041Z,64.10
2022-12-28T15:38:58.274Z,64.20
2022-12-28T15:41:45.497Z,64.10
2022-12-28T15:44:18.988Z,64.10
2022-12-28T15:46:52.475Z,64.30
2022-12-28T15:49:21.587Z,64.50
2022-12-28T15:51:50.655Z,64.30
2022-12-28T15:54:20.030Z,64.40
2022-12-28T15:56:55.054Z,64.10
2022-12-28T15:59:24.253Z,64.30
2022-12-28T16:01:53.539Z,64.30
2022-12-28T16:04:22.734Z,64.40
2022-12-28T16:06:51.726Z,64.80
2022-12-28T16:09:20.779Z,64.60
2022-12-28T16:11:54.810Z,64.30
2022-12-28T16:14:25.867Z,64.30
2022-12-28T16:16:55.001Z,64.30
2022-12-28T16:19:24.020Z,64.50
2022-12-28T16:21:53.407Z,64.30
2022-12-28T16:24:22.416Z,64.30
2022-12-28T16:26:51.334Z,64.30
2022-12-28T16:29:20.458Z,64.40
2022-12-28T16:31:49.439Z,64.50
2022-12-28T16:34:19.823Z,64.60
2022-12-28T16:36:49.506Z,64.60
2022-12-28T16:39:19.684Z,64.70
2022-12-28T16:41:48.719Z,64.90
2022-12-28T16:44:24.202Z,65.30
2022-12-28T16:46:55.281Z,65.80
2022-12-28T16:49:24.298Z,66.20
2022-12-28T16:51:53.362Z,65.80
2022-12-28T16:54:25.718Z,66.00
2022-12-28T16:56:55.938Z,65.90
2022-12-28T16:59:27.948Z,66.20
2022-12-28T17:01:58.151Z,66.30
2022-12-28T17:04:27.372Z,66.50
2022-12-28T17:06:56.470Z,66.80
2022-12-28T17:09:25.540Z,66.90
2022-12-28T17:11:54.618Z,67.50
2022-12-28T17:14:37.410Z,67.40
2022-12-28T17:17:08.236Z,67.50
2022-12-28T17:19:37.497Z,67.60
2022-12-28T17:22:06.769Z,68.60
2022-12-28T17:24:35.797Z,68.40
2022-12-28T17:27:08.490Z,68.20
2022-12-28T17:29:40.292Z,68.40
2022-12-28T17:32:10.102Z,68.30
2022-12-28T17:34:39.464Z,68.30
2022-12-28T17:37:08.647Z,68.50
2022-12-28T17:39:40.497Z,69.00
2022-12-28T17:42:10.464Z,69.10
2022-12-28T17:44:39.982Z,69.80
2022-12-28T17:47:09.771Z,69.50
2022-12-28T17:49:38.804Z,69.30
2022-12-28T17:52:07.810Z,69.80
2022-12-28T17:54:36.825Z,69.30
2022-12-28T17:57:05.843Z,69.30
2022-12-28T17:59:34.843Z,69.30
2022-12-28T18:02:06.082Z,69.40
2022-12-28T18:04:36.349Z,69.30
2022-12-28T18:07:05.697Z,69.70
2022-12-28T18:09:34.942Z,69.60
2022-12-28T18:12:04.008Z,69.90
2022-12-28T18:14:32.950Z,69.70
2022-12-28T18:17:02.035Z,69.70
2022-12-28T18:19:31.290Z,70.00
2022-12-28T18:22:00.297Z,70.40
2022-12-28T18:24:29.965Z,70.10
2022-12-28T18:26:59.036Z,70.30
2022-12-28T18:29:28.020Z,70.90
2022-12-28T18:31:57.021Z,70.40
2022-12-28T18:34:26.042Z,70.30
2022-12-28T18:36:55.033Z,70.40
2022-12-28T18:39:24.082Z,71.00
2022-12-28T18:41:53.139Z,70.30
2022-12-28T18:44:22.132Z,70.80
2022-12-28T18:46:51.214Z,71.30
2022-12-28T18:49:21.007Z,71.60
2022-12-28T18:51:49.996Z,71.10
2022-12-28T18:54:19.075Z,71.30
2022-12-28T18:56:48.073Z,71.60
2022-12-28T18:59:17.108Z,71.10
2022-12-28T19:04:35.570Z,71.30
2022-12-28T19:07:04.699Z,71.80
2022-12-28T19:09:33.755Z,71.80
2022-12-28T19:12:02.824Z,71.30
2022-12-28T19:14:31.855Z,71.60
2022-12-28T19:17:00.834Z,71.70
2022-12-28T19:19:29.785Z,72.20
2022-12-28T19:21:59.294Z,72.30
2022-12-28T19:24:28.363Z,71.70
2022-12-28T19:26:57.354Z,72.00
2022-12-28T19:29:26.457Z,72.30
2022-12-28T19:31:55.938Z,72.10
2022-12-28T19:34:25.076Z,72.50
2022-12-28T19:36:54.065Z,72.80
2022-12-28T19:39:23.000Z,73.60
2022-12-28T19:41:52.029Z,72.70
2022-12-28T19:44:21.490Z,73.00
2022-12-28T19:46:50.656Z,73.30
2022-12-28T19:49:19.601Z,72.90
2022-12-28T19:51:48.588Z,73.10
2022-12-28T19:54:17.649Z,73.10
2022-12-28T19:56:46.663Z,72.70
2022-12-28T19:59:15.616Z,73.10
2022-12-28T20:01:44.702Z,73.20
2022-12-28T20:04:14.631Z,73.80
2022-12-28T20:06:45.143Z,74.10
2022-12-28T20:09:15.199Z,73.40
2022-12-28T20:11:46.007Z,73.80
2022-12-28T20:14:23.194Z,74.30
2022-12-28T20:16:54.243Z,74.40
2022-12-28T20:19:23.291Z,74.60
2022-12-28T20:21:52.358Z,74.60
2022-12-28T20:24:22.798Z,74.80
2022-12-28T20:26:56.400Z,74.90
2022-12-28T20:29:28.729Z,75.00
2022-12-28T20:31:57.731Z,75.30
2022-12-28T20:34:28.195Z,75.50
2022-12-28T20:36:57.227Z,75.40
2022-12-28T20:39:26.225Z,75.60
2022-12-28T20:42:13.202Z,75.60
2022-12-28T20:44:42.224Z,75.80
2022-12-28T20:47:11.504Z,75.90
2022-12-28T20:49:40.576Z,76.10
2022-12-28T20:52:09.556Z,76.30
2022-12-28T20:54:38.532Z,76.20
2022-12-28T20:57:07.463Z,76.40
2022-12-28T20:59:36.441Z,76.30
2022-12-28T21:02:05.512Z,76.40
2022-12-28T21:04:34.569Z,76.40
2022-12-28T21:07:03.579Z,76.40
2022-12-28T21:09:32.881Z,76.60
2022-12-28T21:12:01.866Z,76.70
2022-12-28T21:14:30.820Z,76.90
2022-12-28T21:16:59.776Z,77.00
2022-12-28T21:19:28.829Z,77.10
2022-12-28T21:21:57.840Z,77.30
2022-12-28T21:24:27.130Z,77.30
2022-12-28T21:26:56.152Z,77.40
2022-12-28T21:29:26.166Z,77.40
2022-12-28T21:31:56.007Z,77.70
2022-12-28T21:34:28.847Z,77.70
2022-12-28T21:37:18.295Z,77.70
2022-12-28T21:39:47.265Z,77.80
2022-12-28T21:42:16.768Z,78.00
2022-12-28T21:44:45.712Z,78.00
2022-12-28T21:47:14.714Z,78.10
2022-12-28T21:49:45.016Z,78.10
2022-12-28T21:52:14.078Z,78.10
2022-12-28T21:54:43.045Z,78.30
2022-12-28T21:57:13.552Z,78.30
2022-12-28T21:59:42.832Z,78.30
2022-12-28T22:02:37.453Z,78.60
2022-12-28T22:05:24.618Z,78.30
2022-12-28T22:08:13.840Z,81.70
2022-12-28T22:11:00.781Z,79.50
2022-12-28T22:13:29.753Z,79.50
2022-12-28T22:15:59.303Z,79.40
2022-12-28T22:21:17.200Z,79.20
2022-12-28T22:23:46.210Z,79.50
2022-12-28T22:26:15.213Z,79.60
2022-12-28T22:28:44.153Z,79.60
2022-12-28T22:31:28.267Z,79.80
2022-12-28T22:34:01.755Z,79.80
2022-12-28T22:36:34.353Z,81.10
2022-12-28T22:39:03.386Z,80.40
2022-12-28T22:41:32.417Z,80.30
2022-12-28T22:44:01.391Z,80.40
2022-12-28T22:46:30.399Z,80.30
2022-12-28T22:48:59.452Z,80.50
2022-12-28T22:51:28.404Z,80.60
2022-12-28T22:53:57.334Z,80.90
2022-12-28T22:56:26.315Z,81.10
2022-12-28T22:58:55.310Z,81.30
2022-12-28T23:01:24.486Z,81.30
2022-12-28T23:03:53.682Z,81.60
2022-12-28T23:06:22.780Z,82.40
2022-12-28T23:08:51.753Z,81.60
2022-12-28T23:11:53.303Z,81.70
2022-12-28T23:14:43.308Z,81.80
2022-12-28T23:17:17.208Z,82.00
2022-12-28T23:20:05.484Z,82.10
2022-12-28T23:22:54.579Z,82.20
2022-12-28T23:25:43.563Z,82.20
2022-12-28T23:28:15.351Z,82.40
2022-12-28T23:30:48.086Z,82.40
2022-12-28T23:33:18.758Z,82.30
2022-12-28T23:35:47.773Z,82.30
2022-12-28T23:38:16.720Z,82.80
2022-12-28T23:40:45.807Z,84.20
2022-12-28T23:43:14.826Z,85.10
2022-12-28T23:45:44.009Z,84.60
2022-12-28T23:48:12.990Z,85.70
2022-12-28T23:50:41.903Z,86.30
2022-12-28T23:53:10.920Z,86.60
2022-12-28T23:55:39.884Z,87.40
2022-12-28T23:58:08.853Z,86.80
